Time;durP1;ratioP1;P1;durP2;ratioP2;P2;SDS_P1;SDS_P2;PMS_P1;PMS_P2;Temp;Humidity;BMP_temperature;BMP_pressure;BME280_temperature;BME280_humidity;BME280_pressure;Samples;Min_cycle;Max_cycle;Signal;HPM_P1;HPM_P2
2022/08/19 00:01:54;;;;;;;11.03;9.47;;;;;;;25.46;51.55;96690.19;6330468;22;20163;-79
2022/08/19 00:04:26;;;;;;;13.83;9.07;;;;;;;25.52;50.36;96686.84;6333768;22;20161;-76
2022/08/19 00:06:54;;;;;;;11.00;9.40;;;;;;;25.38;50.72;96692.84;6331297;22;20166;-75
2022/08/19 00:09:23;;;;;;;11.33;10.13;;;;;;;25.40;49.60;96692.66;6331065;22;20201;-75
2022/08/19 00:11:51;;;;;;;11.77;9.73;;;;;;;25.44;50.34;96692.19;6305940;22;20232;-75
2022/08/19 00:14:20;;;;;;;12.27;9.03;;;;;;;25.17;49.86;96675.81;6332031;22;20502;-75
2022/08/19 00:16:48;;;;;;;10.97;9.43;;;;;;;25.11;50.69;96689.75;6280982;22;20223;-77
2022/08/19 00:19:15;;;;;;;10.33;8.60;;;;;;;25.18;50.31;96688.91;6332423;22;20166;-75
2022/08/19 00:21:44;;;;;;;10.97;9.17;;;;;;;24.86;50.84;96659.78;6332825;22;20172;-78
2022/08/19 00:24:13;;;;;;;8.97;8.07;;;;;;;25.13;50.35;96683.28;6304615;22;20173;-77
2022/08/19 00:26:43;;;;;;;9.27;8.33;;;;;;;25.26;50.77;96686.25;6332204;22;20169;-77
2022/08/19 00:29:12;;;;;;;12.40;8.40;;;;;;;25.12;50.04;96688.75;6305129;22;20197;-76
2022/08/19 00:31:41;;;;;;;10.00;8.17;;;;;;;25.00;51.01;96659.94;6304361;22;20199;-78
2022/08/19 00:34:11;;;;;;;9.77;8.10;;;;;;;25.07;50.68;96678.66;6333156;22;20174;-76
2022/08/19 00:36:41;;;;;;;8.53;7.70;;;;;;;25.05;50.75;96672.69;6277966;22;20577;-76
2022/08/19 00:39:10;;;;;;;9.07;8.13;;;;;;;25.01;50.69;96674.88;6332537;22;20803;-75
2022/08/19 00:41:37;;;;;;;9.70;8.10;;;;;;;24.80;50.53;96669.25;6304681;22;20202;-75
2022/08/19 00:44:13;;;;;;;10.93;8.87;;;;;;;24.77;50.59;96674.06;6305163;22;20245;-76
2022/08/19 00:46:44;;;;;;;9.23;7.97;;;;;;;24.63;51.41;96662.25;6305595;22;20179;-79
2022/08/19 00:49:58;;;;;;;9.60;8.20;;;;;;;24.61;50.94;96679.31;6304474;22;20205;-75
2022/08/19 00:52:34;;;;;;;8.97;8.07;;;;;;;24.72;51.20;96665.75;6250697;22;20176;-74
2022/08/19 00:55:09;;;;;;;10.77;8.30;;;;;;;24.66;51.10;96666.41;6332779;22;20187;-75
2022/08/19 00:57:41;;;;;;;10.97;8.47;;;;;;;24.66;51.49;96666.41;6332055;22;20166;-76
2022/08/19 01:00:13;;;;;;;9.53;8.40;;;;;;;24.54;52.41;96673.03;6332789;22;20161;-76
2022/08/19 01:02:42;;;;;;;10.93;8.53;;;;;;;24.47;52.49;96682.59;6331631;22;20162;-78
2022/08/19 01:05:13;;;;;;;10.10;9.10;;;;;;;24.38;52.16;96673.03;6333648;22;20231;-79
2022/08/19 01:07:43;;;;;;;10.53;8.60;;;;;;;24.59;52.37;96676.00;6304253;22;20175;-77
2022/08/19 01:10:14;;;;;;;11.70;8.50;;;;;;;24.37;52.71;96674.00;6304466;22;20193;-75
2022/08/19 01:12:42;;;;;;;10.60;9.03;;;;;;;24.14;53.07;96676.44;6304834;22;20174;-78
2022/08/19 01:15:15;;;;;;;13.10;8.90;;;;;;;23.69;54.40;96671.50;6303795;22;20164;-76
2022/08/19 01:17:44;;;;;;;10.37;8.80;;;;;;;23.42;55.70;96674.34;6333297;22;20161;-75
2022/08/19 01:20:18;;;;;;;11.43;9.07;;;;;;;23.13;56.34;96666.72;6329257;22;20168;-74
2022/08/19 01:22:49;;;;;;;12.57;9.10;;;;;;;22.85;56.88;96644.13;6304394;22;20160;-74
2022/08/19 01:25:21;;;;;;;12.20;8.57;;;;;;;22.96;56.70;96661.50;6332219;22;20190;-77
2022/08/19 01:27:51;;;;;;;11.97;8.37;;;;;;;22.71;57.33;96635.94;6304369;22;20175;-74
2022/08/19 01:30:25;;;;;;;11.70;8.00;;;;;;;22.91;57.03;96663.78;6332368;22;20253;-77
2022/08/19 01:32:54;;;;;;;10.50;8.57;;;;;;;22.81;57.72;96666.53;6331534;22;20171;-77
2022/08/19 01:35:23;;;;;;;10.93;9.27;;;;;;;22.78;57.73;96674.75;6333205;22;20240;-77
2022/08/19 01:37:54;;;;;;;9.23;8.23;;;;;;;22.78;57.50;96679.19;6226151;22;20205;-76
2022/08/19 01:40:24;;;;;;;15.47;9.03;;;;;;;22.99;57.04;96677.88;6205587;23;20167;-76
2022/08/19 01:42:53;;;;;;;9.90;8.90;;;;;;;23.09;56.60;96680.41;6204276;23;20260;-75
2022/08/19 01:45:23;;;;;;;11.50;10.40;;;;;;;22.96;57.16;96687.91;6203810;23;20164;-75
2022/08/19 01:47:54;;;;;;;17.33;10.77;;;;;;;22.67;58.01;96676.81;6205903;23;20199;-76
2022/08/19 01:50:29;;;;;;;11.30;10.20;;;;;;;22.59;58.38;96685.47;6203841;23;20195;-74
2022/08/19 01:52:57;;;;;;;11.87;10.67;;;;;;;22.45;58.54;96657.78;6204580;23;20217;-75
2022/08/19 01:55:37;;;;;;;11.53;10.37;;;;;;;22.40;59.18;96693.56;6204229;23;20254;-74
2022/08/19 01:58:14;;;;;;;13.30;10.57;;;;;;;22.32;59.71;96696.09;6203967;22;20628;-75
2022/08/19 02:00:42;;;;;;;11.30;10.10;;;;;;;22.26;60.13;96694.88;6204562;23;20167;-74
2022/08/19 02:03:10;;;;;;;13.10;10.17;;;;;;;22.27;59.86;96685.16;6203684;23;20234;-74
2022/08/19 02:05:39;;;;;;;10.27;9.27;;;;;;;22.36;59.50;96695.66;6179664;22;20244;-78
2022/08/19 02:08:09;;;;;;;11.57;9.87;;;;;;;22.43;59.22;96696.72;6204360;23;20165;-75
2022/08/19 02:10:42;;;;;;;12.03;9.93;;;;;;;22.34;59.24;96694.97;6204428;23;20276;-75
2022/08/19 02:13:11;;;;;;;10.27;9.27;;;;;;;22.30;59.07;96693.59;6227530;23;20675;-75
2022/08/19 02:15:59;;;;;;;10.97;9.87;;;;;;;22.27;59.09;96708.91;6222992;23;20631;-75
2022/08/19 02:18:30;;;;;;;12.03;10.73;;;;;;;22.40;58.51;96712.03;6204346;23;20196;-73
2022/08/19 02:20:57;;;;;;;11.57;10.47;;;;;;;22.47;57.89;96707.78;6177519;23;20176;-74
2022/08/19 02:23:25;;;;;;;12.53;10.87;;;;;;;22.52;57.74;96708.97;6203958;23;20183;-75
2022/08/19 02:25:52;;;;;;;11.10;10.00;;;;;;;22.65;57.23;96695.44;6205054;23;20164;-78
2022/08/19 02:28:20;;;;;;;11.27;10.17;;;;;;;22.89;56.71;96697.44;6205918;23;20163;-73
2022/08/19 02:30:48;;;;;;;12.83;10.53;;;;;;;23.08;56.36;96700.69;6178618;22;20197;-76
2022/08/19 02:33:16;;;;;;;11.53;9.37;;;;;;;23.41;55.56;96704.44;6203167;23;20563;-78
2022/08/19 02:35:46;;;;;;;12.67;9.93;;;;;;;23.47;54.70;96698.50;6204406;23;20191;-77
2022/08/19 02:38:27;;;;;;;11.47;9.73;;;;;;;23.54;54.63;96693.41;6322405;22;20198;-77
2022/08/19 02:41:06;;;;;;;14.37;9.70;;;;;;;23.67;54.55;96699.91;6303553;22;20170;-76
2022/08/19 02:43:38;;;;;;;10.33;9.23;;;;;;;23.64;53.92;96708.16;6331984;22;20214;-80
2022/08/19 02:46:22;;;;;;;14.53;10.13;;;;;;;23.31;55.04;96690.44;6330565;22;20708;-78
2022/08/19 02:48:51;;;;;;;12.53;9.20;;;;;;;23.35;55.43;96699.75;6304995;22;20164;-78
2022/08/19 02:51:27;;;;;;;12.70;9.97;;;;;;;23.37;54.88;96698.59;6331081;22;20192;-79
2022/08/19 02:53:55;;;;;;;11.77;9.80;;;;;;;23.45;55.43;96709.22;6330972;22;20259;-75
2022/08/19 02:56:24;;;;;;;10.20;9.20;;;;;;;23.56;55.03;96715.22;6174230;22;20579;-76
2022/08/19 02:58:51;;;;;;;17.50;10.10;;;;;;;23.41;54.74;96713.16;6302632;22;20167;-75
2022/08/19 03:01:28;;;;;;;12.07;9.30;;;;;;;23.20;55.72;96717.16;6174381;22;20166;-79
2022/08/19 03:03:56;;;;;;;10.00;8.87;;;;;;;22.95;56.24;96712.66;6276800;22;20868;-78
2022/08/19 03:06:24;;;;;;;10.67;9.60;;;;;;;22.91;56.42;96713.97;6277614;22;20201;-76
2022/08/19 03:08:52;;;;;;;11.27;9.70;;;;;;;22.53;57.60;96718.56;6277810;22;20182;-77
2022/08/19 03:11:31;;;;;;;11.67;9.97;;;;;;;22.24;58.33;96719.75;6174270;22;20662;-73
2022/08/19 03:13:59;;;;;;;14.73;9.87;;;;;;;22.05;59.41;96723.34;6277711;22;20230;-76
2022/08/19 03:16:28;;;;;;;12.33;10.30;;;;;;;22.08;59.20;96716.94;6275979;22;20167;-78
2022/08/19 03:19:01;;;;;;;13.03;9.53;;;;;;;21.85;59.61;96727.06;6331568;22;20625;-77
2022/08/19 03:21:31;;;;;;;10.97;9.37;;;;;;;21.92;59.70;96728.16;6173728;22;20515;-78
2022/08/19 03:24:01;;;;;;;12.33;8.73;;;;;;;21.95;59.41;96734.97;6276192;22;20238;-78
2022/08/19 03:26:29;;;;;;;12.27;9.53;;;;;;;21.87;59.92;96740.94;6276537;22;20166;-77
2022/08/19 03:28:56;;;;;;;12.27;9.67;;;;;;;21.86;59.79;96739.31;6330796;22;20909;-78
2022/08/19 03:31:26;;;;;;;10.20;9.00;;;;;;;21.90;59.88;96750.38;6331421;22;20195;-77
2022/08/19 03:34:14;;;;;;;11.70;9.23;;;;;;;22.05;59.15;96748.91;6330378;22;20159;-78
2022/08/19 03:36:41;;;;;;;11.13;9.50;;;;;;;22.11;59.08;96754.44;6330577;22;20639;-78
2022/08/19 03:39:10;;;;;;;19.73;10.20;;;;;;;22.10;59.02;96760.69;6303495;22;20491;-78
2022/08/19 03:41:40;;;;;;;11.87;9.80;;;;;;;22.06;59.28;96756.69;6330972;22;20548;-79
2022/08/19 03:44:14;;;;;;;10.90;9.20;;;;;;;22.00;59.40;96748.50;6331878;22;20164;-78
2022/08/19 03:46:45;;;;;;;13.13;9.97;;;;;;;21.95;59.65;96756.88;6332361;22;20679;-77
2022/08/19 03:49:12;;;;;;;11.60;9.80;;;;;;;21.61;60.73;96751.31;6333701;22;20167;-77
2022/08/19 03:51:42;;;;;;;11.17;9.50;;;;;;;21.60;60.62;96748.81;6332469;22;20191;-77
2022/08/19 03:54:12;;;;;;;10.50;9.10;;;;;;;21.65;60.73;96746.56;6333359;22;20620;-78
2022/08/19 03:56:41;;;;;;;11.67;9.00;;;;;;;21.80;60.17;96751.22;6333699;22;20521;-78
2022/08/19 03:59:13;;;;;;;13.43;9.23;;;;;;;22.08;59.49;96740.69;6305376;22;20175;-78
2022/08/19 04:01:41;;;;;;;14.10;9.23;;;;;;;22.37;58.48;96750.09;6304952;22;20169;-77
2022/08/19 04:04:08;;;;;;;11.07;8.77;;;;;;;22.35;58.57;96741.50;6332447;22;20172;-79
2022/08/19 04:06:38;;;;;;;11.53;8.80;;;;;;;22.44;58.44;96745.84;6305595;22;20200;-80
2022/08/19 04:09:09;;;;;;;13.33;8.77;;;;;;;22.56;57.92;96747.31;6332398;22;20200;-78
2022/08/19 04:11:48;;;;;;;13.03;9.57;;;;;;;22.64;57.85;96749.22;6332496;22;20196;-78
2022/08/19 04:14:20;;;;;;;14.50;9.03;;;;;;;23.12;57.41;96749.59;6305497;22;20162;-79
2022/08/19 04:16:48;;;;;;;10.33;8.23;;;;;;;23.47;56.02;96750.53;6279220;22;20164;-80
2022/08/19 04:19:19;;;;;;;12.57;9.43;;;;;;;23.61;54.46;96742.88;6333215;22;20172;-78
2022/08/19 04:21:50;;;;;;;12.37;8.83;;;;;;;23.91;53.95;96760.00;6304877;22;20507;-78
2022/08/19 04:24:18;;;;;;;11.63;8.50;;;;;;;24.21;53.61;96762.16;6332014;22;20173;-78
2022/08/19 04:26:47;;;;;;;9.97;7.97;;;;;;;24.15;53.24;96758.31;6332279;22;20160;-79
2022/08/19 04:29:21;;;;;;;13.10;8.40;;;;;;;24.16;53.81;96751.22;6332492;22;20646;-78
2022/08/19 04:31:49;;;;;;;10.63;8.33;;;;;;;23.91;54.39;96755.56;6332807;22;20231;-78
2022/08/19 04:34:22;;;;;;;12.70;8.53;;;;;;;23.74;54.35;96748.53;6331821;22;20734;-78
2022/08/19 04:36:51;;;;;;;9.23;8.23;;;;;;;23.71;55.04;96753.31;6330872;22;20287;-81
2022/08/19 04:45:05;;;;;;;14.50;8.73;;;;;;;24.50;53.42;96740.53;6332611;22;20227;-79
2022/08/19 04:47:41;;;;;;;10.80;8.60;;;;;;;24.82;52.43;96741.44;6305277;22;20169;-79
2022/08/19 04:50:19;;;;;;;10.77;9.10;;;;;;;25.28;51.60;96736.44;6332073;22;20598;-78
2022/08/19 04:52:51;;;;;;;13.40;8.33;;;;;;;25.50;50.68;96733.94;6333164;22;20177;-80
2022/08/19 04:55:18;;;;;;;13.60;8.77;;;;;;;25.47;50.72;96726.31;6304346;22;20167;-80
2022/08/19 04:57:47;;;;;;;9.43;7.63;;;;;;;25.63;51.32;96736.06;6305953;22;20179;-79
2022/08/19 05:00:14;;;;;;;11.27;8.10;;;;;;;25.75;49.77;96746.13;6331944;22;20159;-80
2022/08/19 05:02:42;;;;;;;8.77;7.47;;;;;;;25.53;50.75;96749.50;6333021;22;20167;-80
2022/08/19 05:05:09;;;;;;;10.53;8.30;;;;;;;25.68;50.40;96750.47;6254825;22;20248;-81
2022/08/19 05:07:37;;;;;;;12.10;8.17;;;;;;;25.93;50.29;96742.41;6305957;22;20167;-77
2022/08/19 05:10:05;;;;;;;11.03;8.37;;;;;;;26.10;49.52;96750.19;6305762;22;20262;-79
2022/08/19 05:12:33;;;;;;;12.00;8.03;;;;;;;25.89;50.07;96751.72;6332333;22;20173;-80
2022/08/19 05:15:03;;;;;;;9.20;7.53;;;;;;;25.94;49.91;96749.38;6311086;22;20179;-80
2022/08/19 05:17:33;;;;;;;8.50;7.60;;;;;;;25.37;51.45;96749.50;6331576;22;20167;-77
2022/08/19 05:22:55;;;;;;;11.47;8.40;;;;;;;24.95;53.26;96740.94;6332879;22;20174;-79
2022/08/19 05:25:25;;;;;;;10.40;8.23;;;;;;;25.44;52.05;96734.63;6279009;22;20618;-80
2022/08/19 05:27:52;;;;;;;11.50;7.57;;;;;;;25.72;51.47;96741.16;6332622;22;20525;-80
2022/08/19 05:30:21;;;;;;;18.67;10.47;;;;;;;25.63;51.29;96728.09;6331770;22;20195;-81
2022/08/19 05:33:09;;;;;;;10.93;7.90;;;;;;;26.16;50.27;96733.56;6333221;22;20222;-78
2022/08/19 05:35:40;;;;;;;7.30;6.60;;;;;;;26.52;49.52;96745.28;6333490;22;20167;-79
2022/08/19 05:38:08;;;;;;;18.37;8.97;;;;;;;26.56;49.19;96737.81;6191814;22;20281;-79
2022/08/19 05:40:37;;;;;;;13.83;8.00;;;;;;;26.65;49.05;96751.88;6305128;22;20164;-79
2022/08/19 05:43:08;;;;;;;9.07;8.00;;;;;;;26.95;49.18;96759.81;6331371;22;20169;-78
2022/08/19 05:45:40;;;;;;;12.73;8.20;;;;;;;26.47;49.55;96746.81;6281056;22;20523;-79
2022/08/19 05:48:12;;;;;;;8.43;7.57;;;;;;;26.81;49.93;96754.44;6252653;22;20198;-79
2022/08/19 05:50:46;;;;;;;9.67;7.97;;;;;;;27.20;49.50;96755.13;6176077;22;20277;-78
2022/08/19 05:53:16;;;;;;;11.00;7.53;;;;;;;27.20;48.36;96755.91;6176954;22;20205;-78
2022/08/19 05:55:44;;;;;;;10.20;8.57;;;;;;;27.27;48.65;96753.38;6333977;22;20202;-79
2022/08/19 05:58:13;;;;;;;11.33;8.07;;;;;;;27.14;48.57;96748.66;6344411;22;20186;-79
2022/08/19 06:00:43;;;;;;;10.57;7.60;;;;;;;27.10;48.63;96750.03;6284511;22;20166;-77
2022/08/19 06:03:13;;;;;;;8.80;7.90;;;;;;;27.10;48.86;96749.22;6309878;22;20183;-77
2022/08/19 06:05:43;;;;;;;10.57;7.80;;;;;;;27.06;48.68;96758.56;6341633;22;20182;-78
2022/08/19 06:08:19;;;;;;;15.17;9.63;;;;;;;27.25;49.33;96748.25;6357233;22;20177;-77
2022/08/19 06:11:14;;;;;;;12.23;8.17;;;;;;;27.72;47.24;96747.16;6358887;22;20239;-79
2022/08/19 06:13:46;;;;;;;13.93;8.27;;;;;;;28.13;46.44;96761.66;6359433;22;20697;-78
2022/08/19 06:16:21;;;;;;;11.17;7.50;;;;;;;28.43;45.75;96749.09;6350066;22;20858;-79
2022/08/19 06:18:51;;;;;;;11.23;8.20;;;;;;;28.58;45.58;96750.75;6293983;22;20167;-78
2022/08/19 06:21:23;;;;;;;13.23;9.57;;;;;;;28.74;44.94;96741.69;6319503;22;20813;-79
2022/08/19 06:23:54;;;;;;;12.37;9.10;;;;;;;29.07;44.38;96749.97;6350289;22;20155;-79
2022/08/19 06:26:23;;;;;;;12.67;7.50;;;;;;;29.19;45.02;96757.31;6353893;22;20170;-79
2022/08/19 06:28:52;;;;;;;11.70;8.50;;;;;;;29.36;44.26;96744.53;6337063;22;20159;-79
2022/08/19 06:31:23;;;;;;;12.63;9.20;;;;;;;29.66;43.25;96751.28;6337550;22;20206;-78
2022/08/19 06:33:52;;;;;;;13.97;9.37;;;;;;;29.63;42.45;96738.34;6310911;22;20235;-79
2022/08/19 06:36:29;;;;;;;13.63;9.10;;;;;;;29.73;42.39;96746.88;6316914;22;20291;-79
2022/08/19 06:38:58;;;;;;;13.23;7.70;;;;;;;29.99;42.21;96749.66;6179165;23;20185;-79
2022/08/19 06:41:30;;;;;;;9.80;7.57;;;;;;;30.05;41.31;96738.19;6205971;23;20720;-79
2022/08/19 06:44:02;;;;;;;12.43;8.70;;;;;;;30.30;41.45;96744.72;6178589;22;20318;-80
2022/08/19 06:46:30;;;;;;;14.97;9.77;;;;;;;30.28;40.38;96740.56;6181033;23;20187;-79
2022/08/19 06:49:01;;;;;;;13.83;9.23;;;;;;;30.46;40.68;96747.03;6179438;23;20230;-79
2022/08/19 06:51:29;;;;;;;13.40;9.27;;;;;;;30.31;41.22;96749.03;6177570;23;20310;-79
2022/08/19 06:53:58;;;;;;;17.70;8.40;;;;;;;29.99;42.06;96746.16;6178748;23;20231;-78
2022/08/19 06:56:34;;;;;;;12.67;9.37;;;;;;;29.96;42.53;96743.91;6204191;23;20162;-79
2022/08/19 06:59:12;;;;;;;13.33;8.33;;;;;;;30.15;40.87;96744.00;6204919;23;20176;-79
2022/08/19 07:01:50;;;;;;;14.60;11.10;;;;;;;30.20;41.36;96725.53;6202742;23;20170;-79
2022/08/19 07:04:22;;;;;;;16.60;11.47;;;;;;;30.26;41.05;96737.25;6206287;23;20168;-77
2022/08/19 07:06:57;;;;;;;16.57;12.97;;;;;;;30.42;40.34;96735.09;6157107;23;20169;-79
2022/08/19 07:09:29;;;;;;;15.17;12.10;;;;;;;30.65;41.03;96733.91;6177103;23;20260;-79
2022/08/19 07:11:59;;;;;;;19.37;12.10;;;;;;;30.87;40.59;96748.81;6205284;23;20259;-78
2022/08/19 07:14:37;;;;;;;14.00;10.17;;;;;;;30.77;40.50;96724.28;6179281;22;20671;-79
2022/08/19 07:17:07;;;;;;;17.17;10.47;;;;;;;31.06;41.24;96756.03;6154898;23;20173;-79
2022/08/19 07:19:39;;;;;;;15.70;9.27;;;;;;;31.23;40.09;96749.25;6154203;23;20261;-79
2022/08/19 07:22:08;;;;;;;10.23;8.83;;;;;;;30.76;40.38;96752.88;6204225;23;20231;-79
2022/08/19 07:24:40;;;;;;;12.97;9.87;;;;;;;30.63;40.61;96741.31;6205677;22;20162;-79
2022/08/19 07:27:18;;;;;;;10.10;8.97;;;;;;;30.79;39.45;96754.31;6204341;23;20194;-79
2022/08/19 07:29:53;;;;;;;12.00;9.43;;;;;;;30.81;40.29;96747.72;6206118;23;20238;-79
2022/08/19 07:32:26;;;;;;;9.27;8.03;;;;;;;31.19;40.09;96748.00;6153641;23;20210;-79
2022/08/19 07:34:55;;;;;;;9.67;7.87;;;;;;;31.40;39.75;96760.41;6177494;23;20675;-79
2022/08/19 07:37:28;;;;;;;11.13;8.07;;;;;;;31.65;38.32;96754.22;6251330;22;20198;-79
2022/08/19 07:40:04;;;;;;;10.53;8.40;;;;;;;31.77;38.12;96751.72;6305370;22;20228;-79
2022/08/19 07:42:34;;;;;;;11.67;8.03;;;;;;;31.81;37.45;96740.38;6332054;22;20155;-79
2022/08/19 07:45:07;;;;;;;13.17;8.90;;;;;;;31.80;37.62;96725.31;6303509;22;20187;-79
2022/08/19 07:47:35;;;;;;;10.43;8.03;;;;;;;31.99;36.79;96731.69;6331576;22;20171;-79
2022/08/19 07:50:19;;;;;;;12.47;8.90;;;;;;;32.00;36.75;96725.31;6332518;22;20162;-79
2022/08/19 07:52:49;;;;;;;11.60;7.25;;;;;;;32.30;36.64;96752.41;6304697;22;20614;-79
2022/08/19 07:55:21;;;;;;;11.93;7.72;;;;;;;32.34;36.73;96748.25;6279758;22;20673;-79
2022/08/19 07:58:15;;;;;;;12.50;10.23;;;;;;;32.28;37.02;96744.56;6332256;22;20225;-79
2022/08/19 08:00:48;;;;;;;12.40;7.45;;;;;;;32.51;35.95;96744.09;6331915;22;20173;-78
2022/08/19 08:09:10;;;;;;;13.18;7.70;;;;;;;32.60;35.49;96726.72;6331699;22;20159;-79
2022/08/19 08:09:12;;;;;;;14.48;7.88;;;;;;;32.82;34.86;96736.06;6335079;22;20780;-80
2022/08/19 08:11:49;;;;;;;8.55;7.10;;;;;;;32.71;35.17;96729.53;6256821;22;20318;-79
2022/08/19 08:14:30;;;;;;;9.65;7.32;;;;;;;32.53;35.37;96725.91;6303476;22;20559;-79
2022/08/19 08:17:05;;;;;;;10.18;8.48;;;;;;;32.57;35.18;96724.44;6332089;22;20175;-79
2022/08/19 08:19:37;;;;;;;9.32;7.40;;;;;;;32.75;34.80;96721.84;6304503;22;20171;-79
2022/08/19 08:22:06;;;;;;;11.00;7.35;;;;;;;32.99;34.43;96723.81;6332684;22;20159;-80
2022/08/19 08:24:39;;;;;;;8.13;7.28;;;;;;;33.16;33.71;96716.84;6328500;22;20210;-79
2022/08/19 08:27:15;;;;;;;8.43;6.55;;;;;;;32.93;33.84;96695.13;6303035;22;20262;-79
2022/08/19 08:29:44;;;;;;;7.85;6.90;;;;;;;32.64;35.08;96720.72;6304376;22;20179;-78
2022/08/19 08:32:12;;;;;;;8.02;6.80;;;;;;;32.41;34.80;96722.25;6304904;22;20210;-79
2022/08/19 08:34:42;;;;;;;10.27;8.23;;;;;;;32.48;35.26;96731.13;6307029;22;20167;-79
2022/08/19 08:37:13;;;;;;;8.95;6.68;;;;;;;32.65;35.09;96729.56;6306587;22;20191;-79
2022/08/19 08:39:44;;;;;;;8.85;6.82;;;;;;;32.55;34.98;96726.53;6304665;22;20209;-78
2022/08/19 08:42:25;;;;;;;7.65;6.85;;;;;;;32.68;34.60;96723.78;6333245;22;20216;-79
2022/08/19 08:45:02;;;;;;;8.23;6.63;;;;;;;32.30;35.37;96722.91;6304714;22;20163;-75
2022/08/19 08:47:38;;;;;;;8.38;6.35;;;;;;;32.40;34.92;96739.34;6305936;22;20573;-78
2022/08/19 08:50:16;;;;;;;6.68;5.93;;;;;;;32.24;35.26;96715.72;6305599;22;20285;-77
2022/08/19 08:52:51;;;;;;;6.50;5.80;;;;;;;32.43;35.65;96717.50;6339352;22;20255;-79
2022/08/19 08:55:24;;;;;;;8.13;6.38;;;;;;;32.59;35.39;96708.97;6260323;22;20171;-78
2022/08/19 08:57:59;;;;;;;8.13;6.18;;;;;;;32.92;34.59;96717.63;6333699;22;20168;-79
2022/08/19 09:00:42;;;;;;;9.02;6.50;;;;;;;32.98;34.15;96711.41;6311777;22;20163;-76
2022/08/19 09:03:23;;;;;;;7.55;6.72;;;;;;;32.75;34.58;96708.44;6335174;22;20164;-78
2022/08/19 09:06:06;;;;;;;6.72;6.07;;;;;;;32.52;34.30;96719.72;6333011;22;20605;-77
2022/08/19 09:09:03;;;;;;;6.80;5.88;;;;;;;32.63;34.21;96715.53;6335089;22;20278;-76
2022/08/19 09:11:59;;;;;;;7.30;6.32;;;;;;;32.87;34.04;96712.09;6333633;22;20194;-78
2022/08/19 09:14:41;;;;;;;7.60;6.88;;;;;;;32.92;34.13;96714.13;6338595;22;20222;-78
2022/08/19 09:17:31;;;;;;;7.85;6.60;;;;;;;32.98;34.24;96716.78;6339418;22;20159;-78
2022/08/19 09:20:09;;;;;;;7.32;6.13;;;;;;;33.14;33.80;96716.25;6331908;22;20488;-78
2022/08/19 09:22:46;;;;;;;6.72;6.05;;;;;;;32.48;34.51;96718.50;6333117;22;20170;-77
2022/08/19 09:25:18;;;;;;;7.68;6.45;;;;;;;32.48;34.62;96720.41;6332968;22;20217;-78
2022/08/19 09:27:56;;;;;;;6.78;6.10;;;;;;;32.26;35.39;96722.50;6332837;22;20249;-78
2022/08/19 09:30:39;;;;;;;7.75;6.38;;;;;;;32.78;34.54;96716.91;6335254;22;20171;-77
2022/08/19 09:33:08;;;;;;;7.28;6.10;;;;;;;33.09;33.50;96717.94;6315304;22;20198;-78
2022/08/19 09:35:35;;;;;;;6.90;6.13;;;;;;;32.86;33.41;96699.72;6336219;22;20159;-78
2022/08/19 09:38:21;;;;;;;8.40;6.25;;;;;;;32.58;33.59;96718.06;6332991;22;20195;-76
2022/08/19 09:40:50;;;;;;;6.63;5.93;;;;;;;32.40;34.19;96710.69;6333637;22;20552;-78
2022/08/19 09:43:18;;;;;;;8.02;5.95;;;;;;;32.86;33.80;96715.81;6304619;22;20171;-79
2022/08/19 09:46:01;;;;;;;7.10;5.70;;;;;;;32.82;33.61;96709.25;6308098;22;20250;-78
2022/08/19 09:48:32;;;;;;;8.43;6.25;;;;;;;32.87;33.54;96714.78;6332781;22;20163;-76
2022/08/19 09:51:26;;;;;;;7.95;5.90;;;;;;;32.60;33.49;96710.63;6332135;22;20163;-80
2022/08/19 09:54:01;;;;;;;8.73;6.03;;;;;;;32.95;33.52;96711.00;6291766;22;20559;-77
2022/08/19 09:56:32;;;;;;;6.35;5.75;;;;;;;33.20;32.47;96703.81;6305702;22;20159;-78
2022/08/19 09:59:03;;;;;;;7.97;5.72;;;;;;;33.29;32.55;96705.19;6331269;22;20194;-76
2022/08/19 10:01:33;;;;;;;5.90;5.40;;;;;;;32.55;33.21;96705.06;6305290;22;20505;-75
2022/08/19 10:04:02;;;;;;;6.30;5.35;;;;;;;32.85;32.77;96703.44;6303758;22;20241;-76
2022/08/19 10:06:48;;;;;;;8.07;5.55;;;;;;;32.81;33.22;96700.34;6331775;22;20179;-76
2022/08/19 10:09:20;;;;;;;7.03;5.45;;;;;;;32.67;33.53;96703.34;6332543;22;20225;-78
2022/08/19 10:12:01;;;;;;;6.20;5.60;;;;;;;32.84;33.12;96696.44;6334165;22;20248;-78
2022/08/19 10:14:29;;;;;;;7.00;5.45;;;;;;;32.85;33.40;96693.53;6202349;22;20199;-78
2022/08/19 10:17:00;;;;;;;6.80;5.28;;;;;;;32.59;33.13;96692.88;6332696;22;20167;-78
2022/08/19 10:19:44;;;;;;;6.70;5.43;;;;;;;32.75;32.99;96703.09;6333175;22;20171;-79
2022/08/19 10:22:23;;;;;;;6.30;5.10;;;;;;;32.60;32.84;96705.25;6307732;22;20175;-78
2022/08/19 10:24:53;;;;;;;6.03;5.43;;;;;;;32.85;32.98;96711.50;6332240;22;20244;-79
2022/08/19 10:27:23;;;;;;;6.68;5.70;;;;;;;32.58;32.94;96699.28;6306495;22;20553;-78
2022/08/19 10:29:56;;;;;;;5.57;5.07;;;;;;;32.69;32.98;96693.22;6332075;22;20516;-77
2022/08/19 10:32:26;;;;;;;8.38;6.35;;;;;;;32.89;33.39;96691.25;6332481;22;20277;-79
2022/08/19 10:35:01;;;;;;;6.30;5.70;;;;;;;32.95;32.66;96682.31;6332795;22;20640;-77
2022/08/19 10:37:32;;;;;;;7.47;5.38;;;;;;;33.20;32.64;96690.41;6264586;22;20203;-75
2022/08/19 10:40:05;;;;;;;5.97;5.25;;;;;;;32.93;32.29;96680.88;6332013;22;20194;-79
2022/08/19 10:42:35;;;;;;;5.63;5.00;;;;;;;32.78;32.23;96683.88;6332173;22;20164;-77
2022/08/19 10:45:05;;;;;;;7.55;5.45;;;;;;;32.61;33.22;96688.13;6275974;22;20185;-77
2022/08/19 10:47:33;;;;;;;5.47;4.97;;;;;;;32.47;33.04;96681.19;6174382;22;20163;-76
2022/08/19 10:57:24;;;;;;;7.40;4.88;;;;;;;33.21;31.86;96682.13;6303572;22;20171;-78
2022/08/19 11:00:03;;;;;;;6.65;5.38;;;;;;;32.86;32.52;96656.78;6306685;22;20166;-76
2022/08/19 11:02:32;;;;;;;5.80;5.13;;;;;;;33.23;32.69;96663.94;6332129;22;20480;-78
2022/08/19 11:04:59;;;;;;;7.50;6.32;;;;;;;33.63;32.10;96673.25;6277153;22;20163;-78
2022/08/19 11:07:41;;;;;;;9.73;6.47;;;;;;;33.80;31.38;96678.84;6331008;22;20175;-77
2022/08/19 11:10:13;;;;;;;7.93;6.15;;;;;;;33.02;33.03;96661.63;6278259;22;20170;-77
2022/08/19 11:12:53;;;;;;;7.35;6.65;;;;;;;32.90;32.86;96649.94;6305927;22;20273;-77
2022/08/19 11:15:24;;;;;;;8.10;6.53;;;;;;;33.08;33.24;96668.81;6255611;22;20169;-76
2022/08/19 11:17:53;;;;;;;7.75;6.20;;;;;;;32.95;32.97;96666.22;6277942;22;20163;-76
2022/08/19 11:20:23;;;;;;;10.00;7.28;;;;;;;32.82;33.36;96647.53;6304835;22;20197;-78
2022/08/19 11:22:53;;;;;;;9.00;5.35;;;;;;;32.94;32.14;96667.25;6330948;22;20630;-76
2022/08/19 11:25:20;;;;;;;9.70;5.50;;;;;;;33.08;32.64;96658.06;6277136;22;20175;-76
2022/08/19 11:27:50;;;;;;;5.53;4.85;;;;;;;33.43;32.46;96656.50;6330978;22;20178;-77
2022/08/19 11:30:20;;;;;;;6.15;4.97;;;;;;;33.64;32.27;96653.41;6303528;22;20269;-76
2022/08/19 11:32:53;;;;;;;6.03;5.43;;;;;;;33.10;33.31;96631.03;6304131;22;20195;-76
2022/08/19 11:35:23;;;;;;;6.32;5.20;;;;;;;33.26;33.09;96646.56;6332161;22;20545;-77
2022/08/19 11:37:50;;;;;;;6.45;5.45;;;;;;;32.84;33.49;96608.72;6244794;22;20198;-75
2022/08/19 11:40:19;;;;;;;8.20;5.80;;;;;;;33.45;32.83;96649.03;6173255;22;20173;-77
2022/08/19 11:42:56;;;;;;;6.65;5.63;;;;;;;33.57;31.65;96638.44;6174395;22;20482;-77
2022/08/19 11:45:26;;;;;;;6.80;6.10;;;;;;;34.10;31.82;96649.38;6268003;22;20513;-78
2022/08/19 11:47:55;;;;;;;6.20;5.60;;;;;;;33.97;31.84;96652.19;6173788;22;20257;-76
2022/08/19 11:50:25;;;;;;;8.35;5.35;;;;;;;33.49;31.62;96631.47;6175024;22;20170;-77
2022/08/19 11:52:56;;;;;;;8.48;5.97;;;;;;;33.64;32.06;96629.25;6276270;22;20868;-77
2022/08/19 11:55:25;;;;;;;9.35;6.65;;;;;;;33.35;33.70;96651.41;6306960;22;20167;-77
2022/08/19 11:57:52;;;;;;;7.82;6.47;;;;;;;33.06;33.96;96641.34;6301427;22;20182;-77
2022/08/19 12:00:19;;;;;;;6.72;5.90;;;;;;;32.92;34.06;96634.44;6331205;22;20229;-78
2022/08/19 12:02:47;;;;;;;7.93;6.32;;;;;;;33.19;33.61;96627.81;6330299;22;20193;-76
2022/08/19 12:05:14;;;;;;;6.82;6.07;;;;;;;33.08;32.87;96617.00;6277595;22;20242;-78
2022/08/19 12:07:43;;;;;;;5.97;5.38;;;;;;;33.05;32.96;96620.94;6332837;22;20209;-77
2022/08/19 12:10:10;;;;;;;5.80;5.20;;;;;;;33.22;32.10;96630.06;6331769;22;20166;-77